sensor_id;sensor_type;location;lat;lon;timestamp;temperature;humidity
61392;DHT22;47261;52.892;5.738;2022-12-18T00:03:52;-1.70;98.30
61392;DHT22;47261;52.892;5.738;2022-12-18T00:06:18;-1.80;98.30
61392;DHT22;47261;52.892;5.738;2022-12-18T00:08:44;-1.80;98.30
61392;DHT22;47261;52.892;5.738;2022-12-18T00:11:13;-1.80;98.30
61392;DHT22;47261;52.892;5.738;2022-12-18T00:13:40;-1.80;98.30
61392;DHT22;47261;52.892;5.738;2022-12-18T00:16:10;-1.90;98.30
61392;DHT22;47261;52.892;5.738;2022-12-18T00:18:36;-1.90;98.30
61392;DHT22;47261;52.892;5.738;2022-12-18T00:21:04;-1.90;98.30
61392;DHT22;47261;52.892;5.738;2022-12-18T00:23:30;-1.90;98.30
61392;DHT22;47261;52.892;5.738;2022-12-18T00:26:00;-1.90;98.30
61392;DHT22;47261;52.892;5.738;2022-12-18T00:28:26;-2.00;98.30
61392;DHT22;47261;52.892;5.738;2022-12-18T00:31:03;-2.00;98.30
61392;DHT22;47261;52.892;5.738;2022-12-18T00:33:29;-2.00;98.30
61392;DHT22;47261;52.892;5.738;2022-12-18T00:35:59;-2.00;98.30
61392;DHT22;47261;52.892;5.738;2022-12-18T00:38:25;-2.10;98.30
61392;DHT22;47261;52.892;5.738;2022-12-18T00:40:51;-2.10;98.30
61392;DHT22;47261;52.892;5.738;2022-12-18T00:43:16;-2.10;98.40
61392;DHT22;47261;52.892;5.738;2022-12-18T00:45:42;-2.10;98.40
61392;DHT22;47261;52.892;5.738;2022-12-18T00:48:07;-2.10;98.40
61392;DHT22;47261;52.892;5.738;2022-12-18T00:50:33;-2.10;98.40
61392;DHT22;47261;52.892;5.738;2022-12-18T00:52:59;-2.10;98.40
61392;DHT22;47261;52.892;5.738;2022-12-18T00:55:24;-2.10;98.40
61392;DHT22;47261;52.892;5.738;2022-12-18T00:57:51;-2.10;98.40
61392;DHT22;47261;52.892;5.738;2022-12-18T01:00:18;-2.10;98.40
61392;DHT22;47261;52.892;5.738;2022-12-18T01:02:43;-2.10;98.40
61392;DHT22;47261;52.892;5.738;2022-12-18T01:05:12;-2.10;98.40
61392;DHT22;47261;52.892;5.738;2022-12-18T01:07:37;-2.10;98.40
61392;DHT22;47261;52.892;5.738;2022-12-18T01:10:04;-2.10;98.40
61392;DHT22;47261;52.892;5.738;2022-12-18T01:12:30;-2.20;98.30
61392;DHT22;47261;52.892;5.738;2022-12-18T01:14:56;-2.20;98.30
61392;DHT22;47261;52.892;5.738;2022-12-18T01:17:22;-2.20;98.30
61392;DHT22;47261;52.892;5.738;2022-12-18T01:19:47;-2.20;98.30
61392;DHT22;47261;52.892;5.738;2022-12-18T01:22:13;-2.20;98.30
61392;DHT22;47261;52.892;5.738;2022-12-18T01:24:39;-2.20;98.30
61392;DHT22;47261;52.892;5.738;2022-12-18T01:27:04;-2.30;98.30
61392;DHT22;47261;52.892;5.738;2022-12-18T01:29:30;-2.30;98.20
61392;DHT22;47261;52.892;5.738;2022-12-18T01:31:56;-2.30;98.20
61392;DHT22;47261;52.892;5.738;2022-12-18T01:34:23;-2.30;98.20
61392;DHT22;47261;52.892;5.738;2022-12-18T01:36:49;-2.40;98.20
61392;DHT22;47261;52.892;5.738;2022-12-18T01:39:18;-2.40;98.30
61392;DHT22;47261;52.892;5.738;2022-12-18T01:41:44;-2.40;98.30
61392;DHT22;47261;52.892;5.738;2022-12-18T01:53:27;-2.50;98.10
61392;DHT22;47261;52.892;5.738;2022-12-18T01:56:01;-2.60;98.00
61392;DHT22;47261;52.892;5.738;2022-12-18T01:58:48;-2.60;98.00
61392;DHT22;47261;52.892;5.738;2022-12-18T02:01:15;-2.70;97.90
61392;DHT22;47261;52.892;5.738;2022-12-18T02:03:42;-2.70;97.90
61392;DHT22;47261;52.892;5.738;2022-12-18T02:06:23;-2.80;97.90
61392;DHT22;47261;52.892;5.738;2022-12-18T02:11:44;-2.90;97.90
61392;DHT22;47261;52.892;5.738;2022-12-18T02:17:11;-2.90;97.90
61392;DHT22;47261;52.892;5.738;2022-12-18T02:25:21;-3.00;98.00
61392;DHT22;47261;52.892;5.738;2022-12-18T02:27:50;-3.00;98.00
61392;DHT22;47261;52.892;5.738;2022-12-18T02:30:17;-3.10;97.90
61392;DHT22;47261;52.892;5.738;2022-12-18T02:32:49;-3.10;97.90
61392;DHT22;47261;52.892;5.738;2022-12-18T02:35:22;-3.10;98.00
61392;DHT22;47261;52.892;5.738;2022-12-18T02:37:49;-3.10;97.90
61392;DHT22;47261;52.892;5.738;2022-12-18T02:40:21;-3.10;97.90
61392;DHT22;47261;52.892;5.738;2022-12-18T02:42:47;-3.10;97.90
61392;DHT22;47261;52.892;5.738;2022-12-18T02:45:13;-3.20;97.90
61392;DHT22;47261;52.892;5.738;2022-12-18T02:47:42;-3.20;97.90
61392;DHT22;47261;52.892;5.738;2022-12-18T02:58:40;-3.40;97.80
61392;DHT22;47261;52.892;5.738;2022-12-18T03:04:34;-3.40;97.90
61392;DHT22;47261;52.892;5.738;2022-12-18T03:07:05;-3.40;98.00
61392;DHT22;47261;52.892;5.738;2022-12-18T03:09:36;-3.50;98.00
61392;DHT22;47261;52.892;5.738;2022-12-18T03:12:11;-3.50;98.00
61392;DHT22;47261;52.892;5.738;2022-12-18T03:15:00;-3.50;98.00
61392;DHT22;47261;52.892;5.738;2022-12-18T03:17:31;-3.50;98.00
61392;DHT22;47261;52.892;5.738;2022-12-18T03:20:02;-3.50;98.10
61392;DHT22;47261;52.892;5.738;2022-12-18T03:22:32;-3.50;98.10
61392;DHT22;47261;52.892;5.738;2022-12-18T03:25:01;-3.50;98.10
61392;DHT22;47261;52.892;5.738;2022-12-18T03:27:29;-3.50;98.10
61392;DHT22;47261;52.892;5.738;2022-12-18T03:30:03;-3.60;98.10
61392;DHT22;47261;52.892;5.738;2022-12-18T03:32:38;-3.60;98.00
61392;DHT22;47261;52.892;5.738;2022-12-18T03:35:07;-3.50;98.00
61392;DHT22;47261;52.892;5.738;2022-12-18T03:37:33;-3.60;97.90
61392;DHT22;47261;52.892;5.738;2022-12-18T03:39:59;-3.60;97.90
61392;DHT22;47261;52.892;5.738;2022-12-18T03:42:51;-3.60;98.00
61392;DHT22;47261;52.892;5.738;2022-12-18T03:45:35;-3.60;98.00
61392;DHT22;47261;52.892;5.738;2022-12-18T03:48:19;-3.60;98.00
61392;DHT22;47261;52.892;5.738;2022-12-18T03:50:56;-3.60;98.00
61392;DHT22;47261;52.892;5.738;2022-12-18T03:53:28;-3.60;98.00
61392;DHT22;47261;52.892;5.738;2022-12-18T03:55:57;-3.60;98.10
61392;DHT22;47261;52.892;5.738;2022-12-18T03:58:25;-3.70;98.00
61392;DHT22;47261;52.892;5.738;2022-12-18T04:00:54;-3.70;98.00
61392;DHT22;47261;52.892;5.738;2022-12-18T04:03:22;-3.60;98.10
61392;DHT22;47261;52.892;5.738;2022-12-18T04:05:52;-3.70;98.00
61392;DHT22;47261;52.892;5.738;2022-12-18T04:08:20;-3.70;98.00
61392;DHT22;47261;52.892;5.738;2022-12-18T04:10:47;-3.70;98.00
61392;DHT22;47261;52.892;5.738;2022-12-18T04:13:13;-3.60;98.00
61392;DHT22;47261;52.892;5.738;2022-12-18T04:15:46;-3.70;97.90
61392;DHT22;47261;52.892;5.738;2022-12-18T04:18:12;-3.70;97.90
61392;DHT22;47261;52.892;5.738;2022-12-18T04:20:37;-3.70;97.80
61392;DHT22;47261;52.892;5.738;2022-12-18T04:23:03;-3.70;97.80
61392;DHT22;47261;52.892;5.738;2022-12-18T04:25:28;-3.80;97.80
61392;DHT22;47261;52.892;5.738;2022-12-18T04:27:54;-3.80;97.90
61392;DHT22;47261;52.892;5.738;2022-12-18T04:30:20;-3.80;97.90
61392;DHT22;47261;52.892;5.738;2022-12-18T04:32:45;-3.80;98.00
61392;DHT22;47261;52.892;5.738;2022-12-18T04:35:11;-3.80;98.00
61392;DHT22;47261;52.892;5.738;2022-12-18T04:37:37;-3.70;98.00
61392;DHT22;47261;52.892;5.738;2022-12-18T04:40:03;-3.70;98.00
61392;DHT22;47261;52.892;5.738;2022-12-18T04:42:29;-3.70;97.90
61392;DHT22;47261;52.892;5.738;2022-12-18T04:44:54;-3.70;97.90
61392;DHT22;47261;52.892;5.738;2022-12-18T04:47:20;-3.70;97.90
61392;DHT22;47261;52.892;5.738;2022-12-18T04:49:46;-3.70;97.80
61392;DHT22;47261;52.892;5.738;2022-12-18T04:52:11;-3.80;97.70
61392;DHT22;47261;52.892;5.738;2022-12-18T04:54:37;-3.80;97.70
61392;DHT22;47261;52.892;5.738;2022-12-18T04:57:03;-3.80;97.70
61392;DHT22;47261;52.892;5.738;2022-12-18T04:59:28;-3.80;97.70
61392;DHT22;47261;52.892;5.738;2022-12-18T05:01:54;-3.90;97.60
61392;DHT22;47261;52.892;5.738;2022-12-18T05:04:20;-3.90;97.70
61392;DHT22;47261;52.892;5.738;2022-12-18T05:06:45;-3.90;97.70
61392;DHT22;47261;52.892;5.738;2022-12-18T05:09:11;-3.90;97.70
61392;DHT22;47261;52.892;5.738;2022-12-18T05:11:36;-3.90;97.70
61392;DHT22;47261;52.892;5.738;2022-12-18T05:14:02;-4.00;97.70
61392;DHT22;47261;52.892;5.738;2022-12-18T05:16:28;-4.00;97.70
61392;DHT22;47261;52.892;5.738;2022-12-18T05:18:53;-4.00;97.70
61392;DHT22;47261;52.892;5.738;2022-12-18T05:21:19;-3.90;97.70
61392;DHT22;47261;52.892;5.738;2022-12-18T05:23:44;-3.90;97.70
61392;DHT22;47261;52.892;5.738;2022-12-18T05:26:15;-4.00;97.60
61392;DHT22;47261;52.892;5.738;2022-12-18T05:28:41;-4.00;97.60
61392;DHT22;47261;52.892;5.738;2022-12-18T05:31:06;-4.00;97.50
61392;DHT22;47261;52.892;5.738;2022-12-18T05:33:34;-4.00;97.50
61392;DHT22;47261;52.892;5.738;2022-12-18T05:36:05;-4.10;97.40
61392;DHT22;47261;52.892;5.738;2022-12-18T05:38:33;-4.10;97.40
61392;DHT22;47261;52.892;5.738;2022-12-18T05:40:59;-4.10;97.40
61392;DHT22;47261;52.892;5.738;2022-12-18T05:43:26;-4.20;97.30
61392;DHT22;47261;52.892;5.738;2022-12-18T05:45:52;-4.20;97.30
61392;DHT22;47261;52.892;5.738;2022-12-18T05:48:18;-4.20;97.30
61392;DHT22;47261;52.892;5.738;2022-12-18T05:50:46;-4.30;97.40
61392;DHT22;47261;52.892;5.738;2022-12-18T05:53:13;-4.30;97.40
61392;DHT22;47261;52.892;5.738;2022-12-18T05:55:40;-4.30;97.40
61392;DHT22;47261;52.892;5.738;2022-12-18T05:58:07;-4.30;97.40
61392;DHT22;47261;52.892;5.738;2022-12-18T06:00:34;-4.30;97.40
61392;DHT22;47261;52.892;5.738;2022-12-18T06:03:00;-4.30;97.40
61392;DHT22;47261;52.892;5.738;2022-12-18T06:05:26;-4.30;97.40
61392;DHT22;47261;52.892;5.738;2022-12-18T06:07:52;-4.40;97.40
61392;DHT22;47261;52.892;5.738;2022-12-18T06:10:18;-4.40;97.30
61392;DHT22;47261;52.892;5.738;2022-12-18T06:12:43;-4.40;97.40
61392;DHT22;47261;52.892;5.738;2022-12-18T06:15:09;-4.40;97.40
61392;DHT22;47261;52.892;5.738;2022-12-18T06:17:35;-4.40;97.50
61392;DHT22;47261;52.892;5.738;2022-12-18T06:20:01;-4.40;97.50
61392;DHT22;47261;52.892;5.738;2022-12-18T06:22:27;-4.40;97.50
61392;DHT22;47261;52.892;5.738;2022-12-18T06:24:54;-4.40;97.80
61392;DHT22;47261;52.892;5.738;2022-12-18T06:27:19;-4.40;97.50
61392;DHT22;47261;52.892;5.738;2022-12-18T06:29:45;-4.40;97.50
61392;DHT22;47261;52.892;5.738;2022-12-18T06:32:11;-4.40;97.50
61392;DHT22;47261;52.892;5.738;2022-12-18T06:34:37;-4.40;97.60
61392;DHT22;47261;52.892;5.738;2022-12-18T06:37:03;-4.40;97.60
61392;DHT22;47261;52.892;5.738;2022-12-18T06:39:29;-4.30;97.60
61392;DHT22;47261;52.892;5.738;2022-12-18T06:41:55;-4.40;97.60
61392;DHT22;47261;52.892;5.738;2022-12-18T06:44:21;-4.30;97.60
61392;DHT22;47261;52.892;5.738;2022-12-18T06:46:46;-4.30;97.60
61392;DHT22;47261;52.892;5.738;2022-12-18T06:49:12;-4.30;97.60
61392;DHT22;47261;52.892;5.738;2022-12-18T06:51:38;-4.30;97.60
61392;DHT22;47261;52.892;5.738;2022-12-18T06:54:03;-4.30;97.60
61392;DHT22;47261;52.892;5.738;2022-12-18T06:56:29;-4.30;97.50
61392;DHT22;47261;52.892;5.738;2022-12-18T06:58:55;-4.30;97.50
61392;DHT22;47261;52.892;5.738;2022-12-18T07:01:21;-4.30;97.50
61392;DHT22;47261;52.892;5.738;2022-12-18T07:03:47;-4.30;97.50
61392;DHT22;47261;52.892;5.738;2022-12-18T07:06:18;-4.30;97.50
61392;DHT22;47261;52.892;5.738;2022-12-18T07:08:45;-4.30;97.50
61392;DHT22;47261;52.892;5.738;2022-12-18T07:11:11;-4.40;97.50
61392;DHT22;47261;52.892;5.738;2022-12-18T07:13:36;-4.40;97.50
61392;DHT22;47261;52.892;5.738;2022-12-18T07:16:07;-4.40;97.70
61392;DHT22;47261;52.892;5.738;2022-12-18T07:18:33;-4.40;97.40
61392;DHT22;47261;52.892;5.738;2022-12-18T07:21:03;-4.40;97.40
61392;DHT22;47261;52.892;5.738;2022-12-18T07:23:29;-4.40;97.40
61392;DHT22;47261;52.892;5.738;2022-12-18T07:25:54;-4.40;97.40
61392;DHT22;47261;52.892;5.738;2022-12-18T07:28:20;-4.40;97.40
61392;DHT22;47261;52.892;5.738;2022-12-18T07:30:46;-4.40;97.40
61392;DHT22;47261;52.892;5.738;2022-12-18T07:33:11;-4.40;97.40
61392;DHT22;47261;52.892;5.738;2022-12-18T07:35:37;-4.40;97.40
61392;DHT22;47261;52.892;5.738;2022-12-18T07:38:02;-4.40;97.50
61392;DHT22;47261;52.892;5.738;2022-12-18T07:40:28;-4.40;97.50
61392;DHT22;47261;52.892;5.738;2022-12-18T07:42:54;-4.40;97.40
61392;DHT22;47261;52.892;5.738;2022-12-18T07:45:19;-4.40;97.40
61392;DHT22;47261;52.892;5.738;2022-12-18T07:47:45;-4.40;97.40
61392;DHT22;47261;52.892;5.738;2022-12-18T07:50:10;-4.40;97.40
61392;DHT22;47261;52.892;5.738;2022-12-18T07:52:36;-4.40;97.40
61392;DHT22;47261;52.892;5.738;2022-12-18T07:55:02;-4.40;97.40
61392;DHT22;47261;52.892;5.738;2022-12-18T07:57:28;-4.40;97.40
61392;DHT22;47261;52.892;5.738;2022-12-18T07:59:53;-4.40;97.40
61392;DHT22;47261;52.892;5.738;2022-12-18T08:02:19;-4.30;97.40
61392;DHT22;47261;52.892;5.738;2022-12-18T08:04:45;-4.40;97.40
61392;DHT22;47261;52.892;5.738;2022-12-18T08:07:10;-4.30;97.40
61392;DHT22;47261;52.892;5.738;2022-12-18T08:09:36;-4.30;97.50
61392;DHT22;47261;52.892;5.738;2022-12-18T08:12:01;-4.30;97.50
61392;DHT22;47261;52.892;5.738;2022-12-18T08:14:27;-4.20;97.50
61392;DHT22;47261;52.892;5.738;2022-12-18T08:16:53;-4.20;97.50
61392;DHT22;47261;52.892;5.738;2022-12-18T08:19:18;-4.10;97.70
61392;DHT22;47261;52.892;5.738;2022-12-18T08:21:44;-4.10;97.50
61392;DHT22;47261;52.892;5.738;2022-12-18T08:24:10;-4.10;97.50
61392;DHT22;47261;52.892;5.738;2022-12-18T08:26:36;-4.00;97.50
61392;DHT22;47261;52.892;5.738;2022-12-18T08:29:02;-4.00;97.50
61392;DHT22;47261;52.892;5.738;2022-12-18T08:31:29;-3.90;97.50
61392;DHT22;47261;52.892;5.738;2022-12-18T08:33:55;-3.90;97.50
61392;DHT22;47261;52.892;5.738;2022-12-18T08:36:21;-3.90;97.50
61392;DHT22;47261;52.892;5.738;2022-12-18T08:38:47;-3.80;97.60
61392;DHT22;47261;52.892;5.738;2022-12-18T08:41:15;-3.70;97.60
61392;DHT22;47261;52.892;5.738;2022-12-18T08:43:41;-3.60;97.70
61392;DHT22;47261;52.892;5.738;2022-12-18T08:46:32;-3.60;97.60
61392;DHT22;47261;52.892;5.738;2022-12-18T08:48:57;-3.40;97.70
61392;DHT22;47261;52.892;5.738;2022-12-18T08:51:23;-3.30;97.80
61392;DHT22;47261;52.892;5.738;2022-12-18T08:53:49;-3.20;97.80
61392;DHT22;47261;52.892;5.738;2022-12-18T08:56:15;-3.10;97.80
61392;DHT22;47261;52.892;5.738;2022-12-18T08:58:41;-3.00;97.80
61392;DHT22;47261;52.892;5.738;2022-12-18T09:01:08;-2.90;97.70
61392;DHT22;47261;52.892;5.738;2022-12-18T09:03:35;-2.90;97.60
61392;DHT22;47261;52.892;5.738;2022-12-18T09:06:01;-2.80;97.60
61392;DHT22;47261;52.892;5.738;2022-12-18T09:08:27;-2.70;97.60
61392;DHT22;47261;52.892;5.738;2022-12-18T09:10:53;-2.60;97.60
61392;DHT22;47261;52.892;5.738;2022-12-18T09:13:19;-2.50;97.60
61392;DHT22;47261;52.892;5.738;2022-12-18T09:15:47;-2.30;97.60
61392;DHT22;47261;52.892;5.738;2022-12-18T09:18:14;-2.30;97.50
61392;DHT22;47261;52.892;5.738;2022-12-18T09:20:40;-2.20;97.30
61392;DHT22;47261;52.892;5.738;2022-12-18T09:23:06;-2.20;97.10
61392;DHT22;47261;52.892;5.738;2022-12-18T09:25:33;-2.20;96.90
61392;DHT22;47261;52.892;5.738;2022-12-18T09:28:19;-2.10;96.80
61392;DHT22;47261;52.892;5.738;2022-12-18T09:30:47;-2.10;96.70
61392;DHT22;47261;52.892;5.738;2022-12-18T09:33:14;-2.10;96.60
61392;DHT22;47261;52.892;5.738;2022-12-18T09:35:41;-2.00;96.50
61392;DHT22;47261;52.892;5.738;2022-12-18T09:38:11;-2.00;96.40
61392;DHT22;47261;52.892;5.738;2022-12-18T09:40:46;-2.00;96.30
61392;DHT22;47261;52.892;5.738;2022-12-18T09:43:22;-2.00;96.20
61392;DHT22;47261;52.892;5.738;2022-12-18T09:45:53;-1.90;96.30
61392;DHT22;47261;52.892;5.738;2022-12-18T09:48:31;-1.90;96.30
61392;DHT22;47261;52.892;5.738;2022-12-18T09:51:05;-1.80;96.30
61392;DHT22;47261;52.892;5.738;2022-12-18T09:53:37;-1.80;96.30
61392;DHT22;47261;52.892;5.738;2022-12-18T09:56:05;-1.80;96.20
61392;DHT22;47261;52.892;5.738;2022-12-18T09:58:44;-1.80;96.10
61392;DHT22;47261;52.892;5.738;2022-12-18T10:01:13;-1.80;96.10
61392;DHT22;47261;52.892;5.738;2022-12-18T10:03:39;-1.90;96.00
61392;DHT22;47261;52.892;5.738;2022-12-18T10:12:13;-1.90;95.90
61392;DHT22;47261;52.892;5.738;2022-12-18T10:14:53;-1.80;96.00
61392;DHT22;47261;52.892;5.738;2022-12-18T10:19:56;-1.80;96.00
61392;DHT22;47261;52.892;5.738;2022-12-18T10:25:23;-1.70;95.90
61392;DHT22;47261;52.892;5.738;2022-12-18T10:27:53;-1.70;95.90
61392;DHT22;47261;52.892;5.738;2022-12-18T10:30:23;-1.60;95.80
61392;DHT22;47261;52.892;5.738;2022-12-18T10:32:49;-1.60;95.80
61392;DHT22;47261;52.892;5.738;2022-12-18T10:35:22;-1.60;95.70
61392;DHT22;47261;52.892;5.738;2022-12-18T10:43:34;-1.50;95.50
61392;DHT22;47261;52.892;5.738;2022-12-18T10:46:01;-1.40;95.40
61392;DHT22;47261;52.892;5.738;2022-12-18T10:48:27;-1.40;95.40
61392;DHT22;47261;52.892;5.738;2022-12-18T10:50:53;-1.40;95.40
61392;DHT22;47261;52.892;5.738;2022-12-18T10:53:26;-1.30;95.40
61392;DHT22;47261;52.892;5.738;2022-12-18T10:55:53;-1.30;95.30
61392;DHT22;47261;52.892;5.738;2022-12-18T10:58:30;-1.20;95.40
61392;DHT22;47261;52.892;5.738;2022-12-18T11:01:17;-1.20;95.40
61392;DHT22;47261;52.892;5.738;2022-12-18T11:03:47;-1.10;95.40
61392;DHT22;47261;52.892;5.738;2022-12-18T11:06:25;-1.10;95.30
61392;DHT22;47261;52.892;5.738;2022-12-18T11:09:02;-1.00;95.30
61392;DHT22;47261;52.892;5.738;2022-12-18T11:11:28;-1.00;95.30
61392;DHT22;47261;52.892;5.738;2022-12-18T11:14:04;-1.00;95.20
61392;DHT22;47261;52.892;5.738;2022-12-18T11:16:37;-1.00;95.20
61392;DHT22;47261;52.892;5.738;2022-12-18T11:19:36;-0.90;95.30
61392;DHT22;47261;52.892;5.738;2022-12-18T11:22:19;-0.90;95.20
61392;DHT22;47261;52.892;5.738;2022-12-18T11:27:37;-0.80;95.10
61392;DHT22;47261;52.892;5.738;2022-12-18T11:35:37;-0.80;94.90
61392;DHT22;47261;52.892;5.738;2022-12-18T11:38:20;-0.80;94.90
61392;DHT22;47261;52.892;5.738;2022-12-18T11:43:32;-0.70;94.90
61392;DHT22;47261;52.892;5.738;2022-12-18T11:46:14;-0.70;94.90
61392;DHT22;47261;52.892;5.738;2022-12-18T11:48:52;-0.60;94.80
61392;DHT22;47261;52.892;5.738;2022-12-18T11:51:37;-0.70;94.70
61392;DHT22;47261;52.892;5.738;2022-12-18T11:54:14;-0.60;94.70
61392;DHT22;47261;52.892;5.738;2022-12-18T11:59:38;-0.50;94.60
61392;DHT22;47261;52.892;5.738;2022-12-18T12:05:15;-0.50;94.60
61392;DHT22;47261;52.892;5.738;2022-12-18T12:13:16;-0.40;94.60
61392;DHT22;47261;52.892;5.738;2022-12-18T12:16:18;-0.40;94.50
61392;DHT22;47261;52.892;5.738;2022-12-18T12:19:00;-0.30;94.40
61392;DHT22;47261;52.892;5.738;2022-12-18T12:21:38;-0.30;94.40
61392;DHT22;47261;52.892;5.738;2022-12-18T12:33:47;-0.10;94.40
61392;DHT22;47261;52.892;5.738;2022-12-18T12:38:46;-0.10;94.00
61392;DHT22;47261;52.892;5.738;2022-12-18T12:41:19;-0.10;94.00
61392;DHT22;47261;52.892;5.738;2022-12-18T12:44:07;0.00;94.00
61392;DHT22;47261;52.892;5.738;2022-12-18T12:46:38;0.00;94.10
61392;DHT22;47261;52.892;5.738;2022-12-18T12:49:15;0.00;94.10
61392;DHT22;47261;52.892;5.738;2022-12-18T12:51:45;0.10;94.10
61392;DHT22;47261;52.892;5.738;2022-12-18T12:54:23;0.10;94.10
61392;DHT22;47261;52.892;5.738;2022-12-18T12:57:14;0.20;94.10
61392;DHT22;47261;52.892;5.738;2022-12-18T12:59:51;0.20;94.10
61392;DHT22;47261;52.892;5.738;2022-12-18T13:05:04;0.20;94.00
61392;DHT22;47261;52.892;5.738;2022-12-18T13:15:29;0.20;93.90
61392;DHT22;47261;52.892;5.738;2022-12-18T13:18:13;0.20;93.90
61392;DHT22;47261;52.892;5.738;2022-12-18T13:20:41;0.20;93.90
61392;DHT22;47261;52.892;5.738;2022-12-18T13:26:42;0.30;93.80
61392;DHT22;47261;52.892;5.738;2022-12-18T13:31:28;0.30;93.80
61392;DHT22;47261;52.892;5.738;2022-12-18T13:34:25;0.30;93.80
61392;DHT22;47261;52.892;5.738;2022-12-18T13:36:53;0.30;93.70
61392;DHT22;47261;52.892;5.738;2022-12-18T13:41:54;0.30;93.70
61392;DHT22;47261;52.892;5.738;2022-12-18T13:44:58;0.30;93.60
61392;DHT22;47261;52.892;5.738;2022-12-18T13:47:35;0.30;93.60
61392;DHT22;47261;52.892;5.738;2022-12-18T13:50:25;0.30;93.60
61392;DHT22;47261;52.892;5.738;2022-12-18T13:52:51;0.30;93.60
61392;DHT22;47261;52.892;5.738;2022-12-18T13:55:19;0.30;93.60
61392;DHT22;47261;52.892;5.738;2022-12-18T13:57:46;0.30;93.60
61392;DHT22;47261;52.892;5.738;2022-12-18T14:00:28;0.30;93.60
61392;DHT22;47261;52.892;5.738;2022-12-18T14:02:55;0.30;93.70
61392;DHT22;47261;52.892;5.738;2022-12-18T14:05:26;0.20;93.70
61392;DHT22;47261;52.892;5.738;2022-12-18T14:07:53;0.30;93.70
61392;DHT22;47261;52.892;5.738;2022-12-18T14:10:20;0.20;93.60
61392;DHT22;47261;52.892;5.738;2022-12-18T14:12:50;0.20;93.90
61392;DHT22;47261;52.892;5.738;2022-12-18T14:17:57;0.20;93.50
61392;DHT22;47261;52.892;5.738;2022-12-18T14:20:25;0.10;93.50
61392;DHT22;47261;52.892;5.738;2022-12-18T14:22:51;0.10;93.50
61392;DHT22;47261;52.892;5.738;2022-12-18T14:25:28;0.10;93.50
61392;DHT22;47261;52.892;5.738;2022-12-18T14:28:11;0.10;93.40
61392;DHT22;47261;52.892;5.738;2022-12-18T14:30:43;0.10;93.40
61392;DHT22;47261;52.892;5.738;2022-12-18T14:33:14;0.10;93.40
61392;DHT22;47261;52.892;5.738;2022-12-18T14:35:43;0.10;93.40
61392;DHT22;47261;52.892;5.738;2022-12-18T14:40:53;0.10;93.40
61392;DHT22;47261;52.892;5.738;2022-12-18T14:43:19;0.10;93.40
61392;DHT22;47261;52.892;5.738;2022-12-18T14:45:45;0.10;93.40
61392;DHT22;47261;52.892;5.738;2022-12-18T14:50:40;0.10;93.40
61392;DHT22;47261;52.892;5.738;2022-12-18T14:53:17;0.10;93.40
61392;DHT22;47261;52.892;5.738;2022-12-18T14:55:46;0.10;93.40
61392;DHT22;47261;52.892;5.738;2022-12-18T14:58:15;0.10;93.40
61392;DHT22;47261;52.892;5.738;2022-12-18T15:00:43;0.10;93.40
61392;DHT22;47261;52.892;5.738;2022-12-18T15:03:09;0.10;93.30
61392;DHT22;47261;52.892;5.738;2022-12-18T15:05:35;0.10;93.40
61392;DHT22;47261;52.892;5.738;2022-12-18T15:08:01;0.10;93.40
61392;DHT22;47261;52.892;5.738;2022-12-18T15:10:31;0.10;93.40
61392;DHT22;47261;52.892;5.738;2022-12-18T15:18:03;0.20;93.40
61392;DHT22;47261;52.892;5.738;2022-12-18T15:20:46;0.10;93.40
61392;DHT22;47261;52.892;5.738;2022-12-18T15:23:21;0.20;93.40
61392;DHT22;47261;52.892;5.738;2022-12-18T15:26:01;0.20;93.30
61392;DHT22;47261;52.892;5.738;2022-12-18T15:33:42;0.20;93.30
61392;DHT22;47261;52.892;5.738;2022-12-18T15:36:11;0.20;93.30
61392;DHT22;47261;52.892;5.738;2022-12-18T15:38:37;0.20;93.30
61392;DHT22;47261;52.892;5.738;2022-12-18T15:41:06;0.20;93.30
61392;DHT22;47261;52.892;5.738;2022-12-18T15:43:37;0.20;93.30
61392;DHT22;47261;52.892;5.738;2022-12-18T15:46:05;0.20;93.20
61392;DHT22;47261;52.892;5.738;2022-12-18T15:48:38;0.20;93.20
61392;DHT22;47261;52.892;5.738;2022-12-18T15:51:07;0.20;93.20
61392;DHT22;47261;52.892;5.738;2022-12-18T15:53:34;0.20;93.20
61392;DHT22;47261;52.892;5.738;2022-12-18T15:56:00;0.20;93.10
61392;DHT22;47261;52.892;5.738;2022-12-18T15:58:44;0.20;93.10
61392;DHT22;47261;52.892;5.738;2022-12-18T16:01:10;0.20;93.10
61392;DHT22;47261;52.892;5.738;2022-12-18T16:03:36;0.20;93.20
61392;DHT22;47261;52.892;5.738;2022-12-18T16:06:02;0.30;93.20
61392;DHT22;47261;52.892;5.738;2022-12-18T16:08:29;0.30;93.20
61392;DHT22;47261;52.892;5.738;2022-12-18T16:10:56;0.30;93.10
61392;DHT22;47261;52.892;5.738;2022-12-18T16:13:22;0.30;93.00
61392;DHT22;47261;52.892;5.738;2022-12-18T16:15:48;0.30;93.00
61392;DHT22;47261;52.892;5.738;2022-12-18T16:18:14;0.30;93.00
61392;DHT22;47261;52.892;5.738;2022-12-18T16:20:40;0.30;93.00
61392;DHT22;47261;52.892;5.738;2022-12-18T16:23:06;0.30;92.90
61392;DHT22;47261;52.892;5.738;2022-12-18T16:25:31;0.30;92.90
61392;DHT22;47261;52.892;5.738;2022-12-18T16:27:57;0.40;92.90
61392;DHT22;47261;52.892;5.738;2022-12-18T16:30:28;0.30;92.90
61392;DHT22;47261;52.892;5.738;2022-12-18T16:32:56;0.40;93.00
61392;DHT22;47261;52.892;5.738;2022-12-18T16:35:22;0.40;93.10
61392;DHT22;47261;52.892;5.738;2022-12-18T16:37:48;0.30;93.10
61392;DHT22;47261;52.892;5.738;2022-12-18T16:40:15;0.30;93.10
61392;DHT22;47261;52.892;5.738;2022-12-18T16:42:43;0.30;93.10
61392;DHT22;47261;52.892;5.738;2022-12-18T16:45:14;0.30;93.20
61392;DHT22;47261;52.892;5.738;2022-12-18T16:47:40;0.30;93.20
61392;DHT22;47261;52.892;5.738;2022-12-18T16:50:06;0.40;93.20
61392;DHT22;47261;52.892;5.738;2022-12-18T16:52:33;0.40;93.20
61392;DHT22;47261;52.892;5.738;2022-12-18T16:54:59;0.30;93.20
61392;DHT22;47261;52.892;5.738;2022-12-18T16:57:24;0.40;93.20
61392;DHT22;47261;52.892;5.738;2022-12-18T16:59:50;0.40;93.20
61392;DHT22;47261;52.892;5.738;2022-12-18T17:02:19;0.40;93.20
61392;DHT22;47261;52.892;5.738;2022-12-18T17:04:45;0.40;93.20
61392;DHT22;47261;52.892;5.738;2022-12-18T17:07:11;0.40;93.20
61392;DHT22;47261;52.892;5.738;2022-12-18T17:09:38;0.40;93.20
61392;DHT22;47261;52.892;5.738;2022-12-18T17:12:03;0.40;93.20
61392;DHT22;47261;52.892;5.738;2022-12-18T17:14:29;0.50;93.20
61392;DHT22;47261;52.892;5.738;2022-12-18T17:16:56;0.50;93.20
61392;DHT22;47261;52.892;5.738;2022-12-18T17:19:23;0.50;93.30
61392;DHT22;47261;52.892;5.738;2022-12-18T17:21:49;0.50;93.30
61392;DHT22;47261;52.892;5.738;2022-12-18T17:24:15;0.50;93.30
61392;DHT22;47261;52.892;5.738;2022-12-18T17:26:41;0.50;93.30
61392;DHT22;47261;52.892;5.738;2022-12-18T17:29:07;0.50;93.20
61392;DHT22;47261;52.892;5.738;2022-12-18T17:31:33;0.50;93.10
61392;DHT22;47261;52.892;5.738;2022-12-18T17:34:01;0.50;93.10
61392;DHT22;47261;52.892;5.738;2022-12-18T17:36:27;0.50;93.00
61392;DHT22;47261;52.892;5.738;2022-12-18T17:38:55;0.60;93.10
61392;DHT22;47261;52.892;5.738;2022-12-18T17:41:22;0.50;93.10
61392;DHT22;47261;52.892;5.738;2022-12-18T17:43:56;0.60;93.10
61392;DHT22;47261;52.892;5.738;2022-12-18T17:46:22;0.60;93.10
61392;DHT22;47261;52.892;5.738;2022-12-18T17:48:48;0.60;93.10
61392;DHT22;47261;52.892;5.738;2022-12-18T17:51:15;0.60;93.10